Time;durP1;ratioP1;P1;durP2;ratioP2;P2;SDS_P1;SDS_P2;PMS_P1;PMS_P2;Temp;Humidity;BMP_temperature;BMP_pressure;BME280_temperature;BME280_humidity;BME280_pressure;Samples;Min_cycle;Max_cycle;Signal;HPM_P1;HPM_P2
2022/09/01 00:00:57;;;;;;;1.02;0.40;;;;;;;14.36;70.85;101638.63;4900435;29;20126;-83
2022/09/01 00:03:26;;;;;;;0.30;0.30;;;;;;;14.32;70.45;101636.94;4913808;29;20072;-84
2022/09/01 00:05:56;;;;;;;0.43;0.43;;;;;;;14.30;71.44;101632.56;4917437;29;20048;-84
2022/09/01 00:08:24;;;;;;;1.30;0.50;;;;;;;14.30;71.47;101633.44;4902948;29;20048;-84
2022/09/01 00:10:50;;;;;;;3.35;0.40;;;;;;;14.26;71.28;101633.47;4919162;29;20055;-85
2022/09/01 00:13:21;;;;;;;0.40;0.40;;;;;;;14.22;71.48;101633.53;4926047;29;20068;-83
2022/09/01 00:15:47;;;;;;;0.65;0.40;;;;;;;14.18;71.61;101633.53;4922661;29;20080;-84
2022/09/01 00:18:14;;;;;;;1.35;0.52;;;;;;;14.15;71.90;101634.44;4924596;29;20681;-84
2022/09/01 00:20:42;;;;;;;2.33;0.30;;;;;;;14.15;72.44;101639.72;4927237;29;20063;-84
2022/09/01 00:23:13;;;;;;;1.13;1.13;;;;;;;14.10;72.56;101638.88;4905377;29;20066;-84
2022/09/01 00:25:40;;;;;;;0.85;0.40;;;;;;;14.06;72.66;101637.16;4923230;29;20531;-83
2022/09/01 00:28:07;;;;;;;0.68;0.30;;;;;;;14.03;73.31;101638.03;4903765;29;20776;-83
2022/09/01 00:30:37;;;;;;;0.50;0.50;;;;;;;13.99;72.90;101640.72;4896710;29;20127;-83
2022/09/01 00:33:04;;;;;;;1.90;0.77;;;;;;;13.92;73.18;101646.91;4910734;29;20127;-82
2022/09/01 00:35:32;;;;;;;2.10;0.40;;;;;;;13.89;73.62;101640.75;4895458;29;20738;-84
2022/09/01 00:37:59;;;;;;;2.58;0.25;;;;;;;13.87;74.42;101636.41;4912051;29;20064;-82
2022/09/01 00:40:28;;;;;;;0.32;0.32;;;;;;;13.87;74.12;101633.75;4911613;29;20055;-83
2022/09/01 00:42:55;;;;;;;1.35;0.30;;;;;;;13.84;74.92;101637.28;4911318;29;20063;-84
2022/09/01 00:45:22;;;;;;;1.38;0.30;;;;;;;13.82;74.31;101638.19;4913475;29;20048;-83
2022/09/01 00:47:49;;;;;;;1.42;0.47;;;;;;;13.78;75.15;101633.84;4928500;29;20072;-83
2022/09/01 00:50:19;;;;;;;1.15;0.32;;;;;;;13.74;74.39;101635.63;4914358;29;20084;-83
2022/09/01 00:52:51;;;;;;;1.00;0.28;;;;;;;13.71;74.70;101633.00;4899061;29;20773;-82
2022/09/01 00:55:26;;;;;;;0.63;0.40;;;;;;;13.68;75.15;101635.66;4912142;29;20040;-83
2022/09/01 00:57:54;;;;;;;1.58;0.30;;;;;;;13.65;75.06;101633.03;4911526;29;20704;-83
2022/09/01 01:00:28;;;;;;;0.40;0.40;;;;;;;13.61;75.11;101633.94;4912230;29;20043;-83
2022/09/01 01:02:57;;;;;;;0.52;0.35;;;;;;;13.63;75.73;101633.03;4909481;29;20055;-83
2022/09/01 01:05:32;;;;;;;0.55;0.45;;;;;;;13.65;75.61;101631.28;4915401;29;20062;-83
2022/09/01 01:08:07;;;;;;;1.70;0.20;;;;;;;13.64;75.93;101632.16;4915504;29;20056;-83
2022/09/01 01:10:42;;;;;;;2.28;0.45;;;;;;;13.60;76.22;101630.44;4917407;29;20059;-83
2022/09/01 01:13:16;;;;;;;0.60;0.43;;;;;;;13.56;76.14;101629.56;4941691;29;20051;-83
2022/09/01 01:15:44;;;;;;;0.35;0.35;;;;;;;13.52;75.91;101630.47;4905922;29;20125;-83
2022/09/01 01:18:15;;;;;;;0.47;0.47;;;;;;;13.48;76.27;101633.13;4915556;29;20066;-83
2022/09/01 01:23:41;;;;;;;1.55;0.40;;;;;;;13.42;77.55;101628.78;4952417;28;20051;-83
2022/09/01 01:26:10;;;;;;;1.77;0.50;;;;;;;13.36;77.68;101634.03;4949685;28;20098;-84
2022/09/01 01:28:40;;;;;;;1.90;0.55;;;;;;;13.28;77.87;101631.44;4938154;28;20044;-83
2022/09/01 01:31:12;;;;;;;0.55;0.50;;;;;;;13.25;78.34;101628.84;4937548;29;20033;-82
2022/09/01 01:33:52;;;;;;;0.32;0.32;;;;;;;13.22;78.53;101636.75;4919204;29;20040;-85
2022/09/01 01:36:30;;;;;;;0.80;0.80;;;;;;;13.21;78.80;101637.63;4916318;29;20326;-83
2022/09/01 01:39:02;;;;;;;0.73;0.52;;;;;;;13.15;78.61;101638.50;4930744;29;20193;-83
2022/09/01 01:41:32;;;;;;;0.25;0.25;;;;;;;13.12;78.26;101642.91;4917248;29;20054;-83
2022/09/01 01:44:03;;;;;;;0.30;0.30;;;;;;;13.05;78.86;101639.44;4931735;29;20289;-83
2022/09/01 01:46:31;;;;;;;2.25;0.50;;;;;;;13.04;79.32;101635.06;4931505;29;20063;-83
2022/09/01 01:49:00;;;;;;;0.90;0.30;;;;;;;13.04;79.24;101637.69;4901224;29;20054;-83
2022/09/01 01:51:27;;;;;;;3.47;0.57;;;;;;;13.00;79.73;101644.69;4901899;29;20086;-83
2022/09/01 01:53:55;;;;;;;2.13;0.40;;;;;;;12.98;79.98;101643.81;4917897;29;20040;-83
2022/09/01 01:56:24;;;;;;;2.47;0.40;;;;;;;12.98;79.93;101643.81;4919636;29;20064;-83
2022/09/01 01:58:57;;;;;;;0.30;0.30;;;;;;;12.96;80.82;101642.97;4920630;29;20071;-83
2022/09/01 02:01:30;;;;;;;3.30;0.33;;;;;;;12.91;80.92;101642.09;4914812;29;20080;-83
2022/09/01 02:04:03;;;;;;;1.20;0.82;;;;;;;12.93;80.74;101639.47;4900110;29;20068;-83
2022/09/01 02:06:35;;;;;;;0.68;0.68;;;;;;;12.90;80.54;101638.56;4911620;29;20080;-83
2022/09/01 02:09:03;;;;;;;0.60;0.20;;;;;;;12.90;80.83;101642.97;4913307;29;20040;-83
2022/09/01 02:11:32;;;;;;;1.60;0.30;;;;;;;12.87;81.27;101640.38;4925724;29;20111;-83
2022/09/01 02:14:02;;;;;;;0.80;0.30;;;;;;;12.85;81.58;101647.38;4918614;29;20119;-84
2022/09/01 02:16:33;;;;;;;0.75;0.50;;;;;;;12.84;82.79;101648.25;4917043;29;20056;-83
2022/09/01 02:19:02;;;;;;;1.95;0.45;;;;;;;12.86;83.03;101647.34;4915818;29;20040;-83
2022/09/01 02:21:30;;;;;;;0.82;0.40;;;;;;;12.83;82.30;101646.50;4914249;29;20484;-83
2022/09/01 02:24:10;;;;;;;1.45;0.45;;;;;;;12.82;83.41;101643.00;4912550;29;20482;-83
2022/09/01 02:27:01;;;;;;;0.50;0.50;;;;;;;12.81;83.00;101635.13;4861117;29;20063;-83
2022/09/01 02:29:28;;;;;;;0.40;0.40;;;;;;;12.83;83.53;101636.00;4863333;29;20058;-84
2022/09/01 02:31:59;;;;;;;0.55;0.30;;;;;;;12.80;83.40;101634.25;4913929;29;20064;-83
2022/09/01 02:34:27;;;;;;;0.80;0.70;;;;;;;12.77;83.84;101634.25;4913240;29;20048;-83
2022/09/01 02:36:56;;;;;;;1.60;0.43;;;;;;;12.72;85.11;101631.66;4928340;29;20055;-83
2022/09/01 02:39:32;;;;;;;2.03;0.50;;;;;;;12.70;84.91;101630.75;4929624;29;20043;-84
2022/09/01 02:42:00;;;;;;;0.50;0.50;;;;;;;12.68;85.04;101635.13;4911598;29;20048;-83
2022/09/01 02:44:29;;;;;;;1.90;0.47;;;;;;;12.62;86.13;101635.16;4912528;29;20055;-83
2022/09/01 02:47:00;;;;;;;1.00;0.63;;;;;;;12.60;85.99;101630.78;4911178;29;20052;-85
2022/09/01 02:49:28;;;;;;;0.50;0.50;;;;;;;12.55;86.63;101623.78;4928196;29;20040;-83
2022/09/01 02:52:00;;;;;;;0.43;0.43;;;;;;;12.54;86.48;101627.28;4917548;29;20044;-83
2022/09/01 02:54:28;;;;;;;1.08;0.80;;;;;;;12.53;87.12;101619.41;4898225;29;20135;-83
2022/09/01 02:56:55;;;;;;;1.10;0.90;;;;;;;12.54;87.44;101626.41;4900336;29;20107;-83
2022/09/01 02:59:28;;;;;;;1.98;0.80;;;;;;;12.53;88.16;101619.41;4896805;29;20051;-83
2022/09/01 03:02:52;;;;;;;1.48;0.80;;;;;;;12.50;88.35;101616.78;4912559;29;20048;-83
2022/09/01 03:17:13;;;;;;;1.40;0.60;;;;;;;12.35;90.21;101617.69;4897594;29;20165;-83
2022/09/01 03:19:43;;;;;;;1.75;1.20;;;;;;;12.25;90.58;101608.94;4886796;29;20812;-82
2022/09/01 03:25:19;;;;;;;1.58;0.50;;;;;;;12.16;91.29;101616.81;4894637;29;20984;-83
2022/09/01 03:27:50;;;;;;;1.55;0.60;;;;;;;12.11;92.03;101615.94;4892885;29;20146;-83
2022/09/01 03:30:20;;;;;;;1.55;0.47;;;;;;;12.05;91.98;101617.69;4893795;29;20135;-84
2022/09/01 03:32:49;;;;;;;2.45;0.70;;;;;;;12.05;93.54;101616.81;4911241;29;20451;-83
2022/09/01 03:35:16;;;;;;;1.35;0.60;;;;;;;12.03;94.14;101619.44;4911556;29;20639;-84
2022/09/01 03:37:44;;;;;;;0.93;0.90;;;;;;;12.03;94.42;101613.31;4926004;29;20047;-83
2022/09/01 03:40:12;;;;;;;1.15;0.60;;;;;;;12.00;93.76;101614.19;4913024;29;20098;-84
2022/09/01 03:42:40;;;;;;;0.70;0.70;;;;;;;11.97;94.25;101611.56;4912943;29;20040;-83
2022/09/01 03:45:11;;;;;;;0.88;0.60;;;;;;;11.95;94.36;101615.03;4914541;29;20056;-83
2022/09/01 03:47:40;;;;;;;2.50;0.50;;;;;;;11.96;94.97;101614.19;4912444;29;21116;-83
2022/09/01 03:50:16;;;;;;;1.23;0.50;;;;;;;11.94;94.44;101614.13;4915838;29;20067;-84
2022/09/01 03:52:44;;;;;;;0.55;0.30;;;;;;;11.92;94.91;101618.53;4914012;29;20597;-84
2022/09/01 03:55:13;;;;;;;3.90;0.57;;;;;;;11.89;94.98;101622.00;4899354;29;20062;-83
2022/09/01 03:57:46;;;;;;;0.40;0.40;;;;;;;11.88;95.72;101622.03;4897531;29;20155;-84
2022/09/01 04:00:19;;;;;;;1.15;0.50;;;;;;;11.88;95.96;101624.66;4911012;29;20444;-82
2022/09/01 04:02:49;;;;;;;0.63;0.63;;;;;;;11.88;96.46;101629.88;4923668;29;20040;-82
2022/09/01 04:05:21;;;;;;;1.70;0.80;;;;;;;11.87;96.16;101626.38;4910254;29;20048;-82
2022/09/01 04:07:49;;;;;;;0.63;0.60;;;;;;;11.83;96.76;101615.88;4916999;29;20139;-83
2022/09/01 04:10:17;;;;;;;0.63;0.60;;;;;;;11.85;97.85;101622.88;4911847;29;20167;-82
2022/09/01 04:12:51;;;;;;;2.65;0.63;;;;;;;11.80;97.35;101621.13;4895385;29;20120;-83
2022/09/01 04:15:19;;;;;;;1.40;0.73;;;;;;;11.80;98.24;101624.63;4911126;29;20233;-83
2022/09/01 04:18:08;;;;;;;0.73;0.73;;;;;;;11.78;97.94;101620.25;4896711;29;20104;-83
2022/09/01 04:20:48;;;;;;;1.33;0.90;;;;;;;11.76;98.41;101622.88;4922147;29;20052;-82
2022/09/01 04:23:32;;;;;;;3.55;2.22;;;;;;;11.71;98.31;101619.38;4938072;28;20044;-82
2022/09/01 04:26:08;;;;;;;;;;;;;;;11.69;99.28;101618.47;4941688;29;20105;-82
2022/09/01 04:28:45;;;;;;;0.98;0.90;;;;;;;11.63;99.50;101621.09;4944112;29;19923;-83
2022/09/01 04:31:17;;;;;;;2.45;1.10;;;;;;;11.62;99.50;101617.59;4942359;29;20044;-82
2022/09/01 04:33:51;;;;;;;5.68;1.10;;;;;;;11.57;98.94;101616.72;4897464;29;20056;-83
2022/09/01 04:36:32;;;;;;;;;;;;;;;11.52;100.00;101616.69;4901461;29;20068;-83
2022/09/01 04:39:07;;;;;;;0.88;0.85;;;;;;;11.50;100.00;101612.31;4896924;29;19978;-84
2022/09/01 04:41:44;;;;;;;0.88;0.70;;;;;;;11.51;100.00;101609.72;4900840;29;20062;-83
2022/09/01 04:44:18;;;;;;;0.70;0.70;;;;;;;11.56;100.00;101618.47;4898697;29;20506;-83
2022/09/01 04:46:50;;;;;;;2.38;0.90;;;;;;;11.58;100.00;101615.84;4914122;29;20060;-82
2022/09/01 04:49:25;;;;;;;1.17;0.90;;;;;;;11.57;100.00;101617.56;4897015;29;20080;-83
2022/09/01 04:51:56;;;;;;;1.27;1.13;;;;;;;11.61;100.00;101615.84;4907941;29;20051;-83
2022/09/01 04:54:26;;;;;;;1.90;0.95;;;;;;;11.64;100.00;101622.84;4919563;29;20092;-83
2022/09/01 04:56:56;;;;;;;1.38;0.60;;;;;;;11.68;100.00;101628.13;4907248;29;20109;-83
2022/09/01 04:59:25;;;;;;;0.82;0.82;;;;;;;11.71;100.00;101625.47;4881873;29;20611;-85
2022/09/01 05:01:56;;;;;;;1.13;1.02;;;;;;;11.73;99.74;101626.38;4907681;29;21074;-83
2022/09/01 05:04:27;;;;;;;1.90;1.00;;;;;;;11.74;100.00;101625.47;4922996;29;20566;-84
2022/09/01 05:06:59;;;;;;;3.38;2.10;;;;;;;11.75;99.90;101629.84;4907613;29;20064;-83
2022/09/01 05:09:34;;;;;;;2.97;1.30;;;;;;;11.75;99.85;101631.63;4911863;29;20047;-85
2022/09/01 05:12:09;;;;;;;3.72;1.30;;;;;;;11.81;100.00;101633.38;4894485;29;20040;-84
2022/09/01 05:14:48;;;;;;;2.60;1.08;;;;;;;11.82;99.75;101627.25;4922087;29;20054;-84
2022/09/01 05:17:17;;;;;;;1.10;1.08;;;;;;;11.81;100.00;101634.25;4916646;29;20044;-83
2022/09/01 05:19:49;;;;;;;2.15;1.23;;;;;;;11.81;99.91;101634.25;4917013;29;20056;-84
2022/09/01 05:22:20;;;;;;;1.15;0.98;;;;;;;11.82;100.00;101630.72;4923311;29;20135;-84
2022/09/01 05:24:50;;;;;;;3.63;1.83;;;;;;;11.88;99.99;101632.50;4911465;29;20048;-83
2022/09/01 05:27:19;;;;;;;4.10;2.17;;;;;;;11.91;99.70;101635.13;4910313;29;20330;-84
2022/09/01 05:29:48;;;;;;;1.92;1.58;;;;;;;11.94;99.24;101631.63;4929733;29;20044;-84
2022/09/01 05:32:16;;;;;;;2.03;1.50;;;;;;;11.98;99.07;101636.03;4925805;29;20059;-82
2022/09/01 05:34:43;;;;;;;4.22;1.35;;;;;;;12.00;99.20;101640.41;4917173;29;20691;-83
2022/09/01 05:37:14;;;;;;;1.10;1.10;;;;;;;12.04;99.35;101639.53;4912733;29;20040;-83
2022/09/01 05:39:42;;;;;;;5.78;2.92;;;;;;;12.05;98.89;101643.06;4923167;29;20707;-83
2022/09/01 05:42:12;;;;;;;7.82;1.80;;;;;;;12.02;98.96;101640.41;4907645;29;20507;-83
2022/09/01 05:44:43;;;;;;;2.83;1.40;;;;;;;12.03;99.27;101647.41;4908129;29;20118;-84
2022/09/01 05:47:12;;;;;;;5.40;1.38;;;;;;;12.05;99.21;101650.94;4909981;29;20595;-82
2022/09/01 05:49:39;;;;;;;6.60;1.90;;;;;;;12.06;99.31;101652.69;4914411;29;20142;-82
2022/09/01 05:52:08;;;;;;;1.25;1.15;;;;;;;12.06;99.01;101647.44;4911247;29;20067;-83
2022/09/01 05:54:34;;;;;;;1.70;1.60;;;;;;;12.06;98.76;101650.94;4909194;29;20048;-85
2022/09/01 05:57:03;;;;;;;3.40;1.80;;;;;;;12.11;99.11;101647.44;4924055;29;20048;-83
2022/09/01 05:59:35;;;;;;;3.08;2.25;;;;;;;12.15;98.96;101647.44;4911721;29;20059;-82
2022/09/01 06:02:02;;;;;;;1.83;1.73;;;;;;;12.20;98.33;101650.94;4897441;29;20170;-83
2022/09/01 06:04:30;;;;;;;2.13;1.65;;;;;;;12.22;98.63;101643.94;4907731;29;20063;-83
2022/09/01 06:06:58;;;;;;;3.72;1.27;;;;;;;12.29;98.33;101638.69;4891379;29;20060;-82
2022/09/01 06:09:35;;;;;;;4.43;1.33;;;;;;;12.36;97.62;101637.81;4925930;29;20084;-85
2022/09/01 06:12:16;;;;;;;8.05;2.35;;;;;;;12.40;97.83;101643.06;4908503;29;20060;-83
2022/09/01 06:14:45;;;;;;;2.25;1.55;;;;;;;12.46;97.48;101641.31;4911065;29;20047;-84
2022/09/01 06:17:15;;;;;;;1.77;1.20;;;;;;;12.48;97.09;101632.53;4910382;29;20115;-84
2022/09/01 06:19:43;;;;;;;3.75;1.50;;;;;;;12.57;96.85;101644.81;4908922;29;20572;-83
2022/09/01 06:22:11;;;;;;;2.63;1.45;;;;;;;12.63;96.47;101638.66;4929660;29;20071;-84
2022/09/01 06:24:42;;;;;;;5.47;2.50;;;;;;;12.69;96.08;101642.13;4917011;29;20048;-85
2022/09/01 06:27:10;;;;;;;4.88;2.25;;;;;;;12.80;95.97;101642.13;4917188;29;20095;-83
2022/09/01 06:29:38;;;;;;;5.40;2.40;;;;;;;12.90;95.01;101645.59;4929804;29;20087;-82
2022/09/01 06:32:09;;;;;;;9.82;4.10;;;;;;;13.01;94.46;101643.81;4928731;29;20135;-84
2022/09/01 06:34:50;;;;;;;9.95;5.40;;;;;;;13.21;93.66;101645.50;4911297;29;20614;-83
2022/09/01 06:37:21;;;;;;;9.50;5.85;;;;;;;13.62;90.90;101639.19;4911434;29;20056;-83
2022/09/01 06:39:49;;;;;;;10.60;6.45;;;;;;;14.07;87.89;101642.41;4926426;29;20047;-83
2022/09/01 06:42:18;;;;;;;13.65;5.88;;;;;;;14.48;85.69;101645.56;4912427;29;20048;-82
2022/09/01 06:44:51;;;;;;;9.13;5.35;;;;;;;14.92;82.79;101646.03;4898338;29;20044;-83
2022/09/01 06:47:19;;;;;;;9.82;4.57;;;;;;;15.35;80.49;101644.66;4920654;29;20048;-84
2022/09/01 06:49:46;;;;;;;5.97;2.95;;;;;;;15.77;78.29;101642.28;4915776;29;20051;-83
2022/09/01 06:52:15;;;;;;;6.05;4.50;;;;;;;16.19;75.64;101650.50;4914283;29;20067;-84
2022/09/01 06:54:42;;;;;;;5.78;2.90;;;;;;;16.47;72.98;101651.81;4908793;29;20056;-85
2022/09/01 06:57:11;;;;;;;6.15;1.98;;;;;;;16.69;71.65;101650.50;4907791;29;20055;-84
2022/09/01 06:59:38;;;;;;;5.80;1.73;;;;;;;16.83;70.60;101647.59;4912738;29;20062;-83
2022/09/01 07:02:07;;;;;;;4.10;2.35;;;;;;;17.24;67.52;101652.13;4893494;29;20175;-84
2022/09/01 07:04:42;;;;;;;5.60;1.60;;;;;;;17.48;67.85;101650.72;4908083;29;20085;-83
2022/09/01 07:07:14;;;;;;;4.13;1.13;;;;;;;17.75;65.24;101653.66;4912918;29;20052;-83
2022/09/01 07:09:47;;;;;;;4.45;1.67;;;;;;;17.98;64.28;101656.69;4909794;29;20075;-84
2022/09/01 07:12:18;;;;;;;4.38;0.90;;;;;;;18.12;63.45;101656.34;4921852;29;20479;-84
2022/09/01 07:14:48;;;;;;;4.75;1.20;;;;;;;18.35;61.27;101663.75;4932250;29;20079;-86
2022/09/01 07:17:16;;;;;;;3.15;1.35;;;;;;;18.54;61.48;101663.25;4917656;29;20048;-83
2022/09/01 07:19:43;;;;;;;6.32;1.38;;;;;;;18.83;59.26;101661.59;4889335;29;20082;-85
2022/09/01 07:22:11;;;;;;;3.10;1.10;;;;;;;18.94;58.41;101669.28;4918055;29;20044;-84
2022/09/01 07:24:45;;;;;;;5.03;1.10;;;;;;;18.96;57.99;101668.34;4914543;29;20171;-85
2022/09/01 07:27:14;;;;;;;2.58;0.70;;;;;;;19.16;57.98;101669.56;4912197;29;20044;-85
2022/09/01 07:29:42;;;;;;;2.50;1.00;;;;;;;19.61;56.37;101668.25;4914903;29;20130;-85
2022/09/01 07:32:12;;;;;;;1.98;1.05;;;;;;;19.91;55.19;101662.94;4901269;29;20099;-86
2022/09/01 07:34:55;;;;;;;4.40;1.05;;;;;;;20.17;54.37;101673.56;4916779;29;20622;-85
2022/09/01 07:37:36;;;;;;;5.97;2.20;;;;;;;20.62;52.92;101661.44;4915172;29;20059;-84
2022/09/01 07:40:08;;;;;;;3.97;0.75;;;;;;;21.19;51.32;101655.84;4912377;29;20075;-85
2022/09/01 07:42:38;;;;;;;1.53;0.60;;;;;;;21.59;48.84;101656.13;4894759;29;20554;-84
2022/09/01 07:45:14;;;;;;;3.92;0.60;;;;;;;21.85;47.99;101652.47;4910842;29;20776;-85
2022/09/01 07:47:43;;;;;;;2.63;0.93;;;;;;;22.24;48.31;101656.19;4910004;29;20044;-84
2022/09/01 07:50:27;;;;;;;4.28;1.00;;;;;;;22.72;46.76;101656.84;4905785;29;20136;-84
2022/09/01 07:52:54;;;;;;;3.10;0.80;;;;;;;23.30;44.59;101658.72;4898760;29;20075;-84
2022/09/01 07:55:21;;;;;;;7.65;0.68;;;;;;;23.09;42.71;101661.41;4909518;29;20852;-84
2022/09/01 07:57:48;;;;;;;4.88;0.60;;;;;;;22.95;44.51;101656.69;4911460;29;20052;-84
2022/09/01 08:00:16;;;;;;;2.78;0.50;;;;;;;23.68;42.80;101661.38;4922852;29;20050;-85
2022/09/01 08:02:45;;;;;;;1.10;0.60;;;;;;;23.84;40.85;101660.63;4908241;29;20732;-85
2022/09/01 08:05:21;;;;;;;1.38;0.73;;;;;;;23.54;40.21;101663.84;4908978;29;21049;-85
2022/09/01 08:07:50;;;;;;;4.82;0.40;;;;;;;23.77;40.31;101670.75;4894246;29;20842;-86
2022/09/01 08:10:19;;;;;;;3.05;0.70;;;;;;;23.95;38.93;101659.19;4922289;29;20079;-86
2022/09/01 08:12:47;;;;;;;1.52;0.35;;;;;;;24.10;38.65;101664.72;4924726;29;20511;-86
2022/09/01 08:15:18;;;;;;;1.15;0.50;;;;;;;24.22;37.66;101666.78;4909450;29;20080;-86
2022/09/01 08:17:45;;;;;;;3.22;0.50;;;;;;;24.49;37.21;101665.47;4907811;29;20099;-87
2022/09/01 08:20:12;;;;;;;8.20;3.33;;;;;;;24.63;35.85;101664.72;4869310;29;1141315;-85
2022/09/01 08:22:45;;;;;;;2.17;0.52;;;;;;;25.15;35.60;101664.66;4909258;29;20114;-87
2022/09/01 08:25:14;;;;;;;3.58;1.00;;;;;;;25.38;33.80;101662.56;4906497;29;20052;-85
2022/09/01 08:27:41;;;;;;;0.77;0.40;;;;;;;25.20;34.36;101667.06;4912880;29;20055;-85
2022/09/01 08:30:15;;;;;;;4.40;0.40;;;;;;;25.19;33.73;101666.22;4894324;29;20055;-84
2022/09/01 08:32:42;;;;;;;1.20;0.30;;;;;;;25.26;34.13;101656.88;4928537;29;20056;-87
2022/09/01 08:35:21;;;;;;;4.10;0.47;;;;;;;25.77;32.48;101658.56;4911606;29;20777;-86
2022/09/01 08:38:01;;;;;;;4.93;1.02;;;;;;;26.00;31.83;101659.94;4911801;29;20104;-86
2022/09/01 08:40:43;;;;;;;1.00;0.50;;;;;;;26.54;30.31;101653.22;4896868;29;20048;-86
2022/09/01 08:43:31;;;;;;;2.27;0.33;;;;;;;27.33;29.59;101651.91;4929145;29;20052;-86
2022/09/01 08:46:10;;;;;;;0.50;0.40;;;;;;;27.82;28.29;101661.34;4899213;29;20775;-85
2022/09/01 08:48:48;;;;;;;0.17;0.17;;;;;;;28.05;28.11;101667.88;4895787;29;20119;-84
2022/09/01 08:51:47;;;;;;;2.50;0.25;;;;;;;28.01;27.95;101669.03;4926358;29;20076;-87
2022/09/01 08:54:43;;;;;;;2.15;0.30;;;;;;;28.61;26.48;101658.72;4929436;29;20487;-86
2022/09/01 08:57:44;;;;;;;1.45;0.30;;;;;;;27.78;26.83;101667.00;4915167;29;20119;-86
2022/09/01 09:00:17;;;;;;;2.42;0.20;;;;;;;27.92;27.46;101661.56;4925370;29;20108;-87
2022/09/01 09:03:35;;;;;;;0.40;0.40;;;;;;;28.44;26.24;101654.53;4950266;28;20036;-87
2022/09/01 09:06:24;;;;;;;2.20;0.57;;;;;;;28.46;26.07;101657.09;4918047;29;20088;-86
2022/09/01 09:09:02;;;;;;;0.40;0.22;;;;;;;28.35;26.63;101663.22;4937113;29;20063;-87
2022/09/01 09:12:04;;;;;;;0.30;0.30;;;;;;;29.44;25.60;101657.41;4923636;29;20468;-85
2022/09/01 09:15:05;;;;;;;0.88;0.30;;;;;;;30.02;24.32;101651.34;4923089;29;20083;-86
2022/09/01 09:17:43;;;;;;;1.42;0.40;;;;;;;29.85;24.76;101663.41;4928258;29;20060;-86
2022/09/01 09:20:10;;;;;;;0.85;0.30;;;;;;;29.57;25.54;101656.50;4912563;29;20095;-87
2022/09/01 09:22:37;;;;;;;2.08;0.20;;;;;;;29.65;25.39;101648.72;4942975;29;20107;-86
2022/09/01 09:25:15;;;;;;;1.95;0.40;;;;;;;30.00;24.74;101646.09;4900965;29;20044;-87
2022/09/01 09:27:48;;;;;;;3.85;0.70;;;;;;;29.83;25.06;101643.78;4917955;29;20052;-88
2022/09/01 09:30:27;;;;;;;1.17;0.25;;;;;;;30.20;24.76;101649.09;4928892;29;20036;-87
2022/09/01 09:33:11;;;;;;;0.93;0.20;;;;;;;30.76;24.19;101637.56;4905783;29;20055;-87
2022/09/01 09:35:47;;;;;;;1.45;0.50;;;;;;;30.96;23.83;101644.09;4932517;29;20115;-87
2022/09/01 09:38:17;;;;;;;1.42;0.68;;;;;;;30.85;23.75;101639.53;4917681;29;20052;-87
2022/09/01 09:41:18;;;;;;;0.88;0.30;;;;;;;31.33;23.28;101633.00;4935449;29;20119;-86
2022/09/01 09:44:27;;;;;;;2.60;0.73;;;;;;;30.98;23.67;101638.56;4917973;29;20076;-87
2022/09/01 09:46:56;;;;;;;2.85;0.43;;;;;;;30.89;24.01;101633.91;4916754;29;20044;-87
2022/09/01 09:49:33;;;;;;;;;;;;;;;30.80;23.47;101639.03;4919140;29;20444;-87
2022/09/01 09:52:11;;;;;;;0.65;0.20;;;;;;;31.13;22.91;101637.34;4933067;29;20396;-87
2022/09/01 09:55:29;;;;;;;1.75;0.20;;;;;;;30.83;22.96;101632.53;4930564;29;20052;-85
2022/09/01 09:58:13;;;;;;;1.17;0.20;;;;;;;30.61;23.46;101633.38;4929929;29;20060;-87
2022/09/01 10:01:14;;;;;;;3.83;0.28;;;;;;;31.19;22.40;101630.59;4918343;29;20488;-86
2022/09/01 10:03:49;;;;;;;0.75;0.30;;;;;;;31.84;22.82;101619.84;4933351;29;20068;-87
2022/09/01 10:06:40;;;;;;;2.00;0.30;;;;;;;32.59;21.23;101615.25;4931886;29;20416;-86
2022/09/01 10:09:38;;;;;;;1.40;0.10;;;;;;;32.79;20.15;101620.81;4910996;29;20570;-86
2022/09/01 10:12:06;;;;;;;0.52;0.40;;;;;;;32.59;20.53;101611.69;4917792;29;20044;-86
2022/09/01 10:14:49;;;;;;;0.68;0.17;;;;;;;32.63;20.23;101611.28;4917132;29;20768;-86
2022/09/01 10:17:26;;;;;;;0.63;0.20;;;;;;;32.59;20.54;101607.13;4920243;29;20051;-88
2022/09/01 10:20:01;;;;;;;1.48;0.30;;;;;;;33.17;20.21;101610.19;4940670;29;20044;-88
2022/09/01 10:22:36;;;;;;;0.25;0.20;;;;;;;33.56;20.10;101607.59;4944457;28;20020;-88
2022/09/01 10:25:06;;;;;;;1.30;0.25;;;;;;;33.56;19.90;101604.88;4930625;28;20044;-88
2022/09/01 10:27:45;;;;;;;0.35;0.20;;;;;;;33.25;19.54;101605.81;4906940;29;20052;-87
2022/09/01 10:30:21;;;;;;;0.68;0.40;;;;;;;33.54;20.11;101602.31;4930223;29;20538;-86
2022/09/01 10:32:57;;;;;;;1.20;0.20;;;;;;;34.42;19.11;101598.72;4912444;29;20159;-87
2022/09/01 10:35:35;;;;;;;1.60;0.20;;;;;;;34.72;18.44;101603.03;4912788;29;20044;-86
2022/09/01 10:38:15;;;;;;;1.08;0.38;;;;;;;33.90;18.62;101604.50;4932220;29;20048;-88
2022/09/01 10:40:47;;;;;;;0.25;0.10;;;;;;;34.53;18.70;101597.66;4910893;29;20048;-88
2022/09/01 10:43:48;;;;;;;4.35;0.93;;;;;;;33.58;17.91;101606.44;4908762;29;20111;-88
2022/09/01 10:46:25;;;;;;;6.13;0.40;;;;;;;32.63;19.07;101600.44;4912577;29;20669;-87
2022/09/01 10:48:58;;;;;;;1.98;0.10;;;;;;;33.02;19.41;101586.19;4926008;29;20052;-89
2022/09/01 10:51:42;;;;;;;3.80;0.30;;;;;;;33.66;18.50;101577.75;4907879;29;20403;-88
2022/09/01 10:54:35;;;;;;;0.75;0.10;;;;;;;33.95;18.48;101585.91;4922737;29;20139;-88
2022/09/01 10:57:11;;;;;;;1.35;0.20;;;;;;;33.88;19.07;101577.47;4917562;29;20060;-87
2022/09/01 10:59:42;;;;;;;0.50;0.40;;;;;;;33.75;19.32;101579.59;4912582;29;20103;-88
2022/09/01 11:02:28;;;;;;;2.50;0.40;;;;;;;34.46;18.19;101562.91;4896904;29;20112;-87
2022/09/01 11:04:55;;;;;;;0.85;0.57;;;;;;;35.16;18.16;101568.88;4895505;29;20072;-88
2022/09/01 11:07:37;;;;;;;1.20;0.30;;;;;;;35.48;17.02;101570.28;4914512;29;20056;-86
2022/09/01 11:10:32;;;;;;;1.08;0.32;;;;;;;36.41;16.67;101570.69;4927487;29;20063;-86
2022/09/01 11:13:32;;;;;;;0.45;0.20;;;;;;;35.34;16.53;101569.78;4928402;29;20058;-88
2022/09/01 11:16:26;;;;;;;0.52;0.30;;;;;;;35.87;16.23;101569.97;4931854;29;20039;-88
2022/09/01 11:18:58;;;;;;;0.35;0.30;;;;;;;35.60;16.02;101575.31;4919083;29;20052;-89
2022/09/01 11:21:32;;;;;;;0.03;0.03;;;;;;;35.81;15.93;101582.28;4899240;29;20071;-88
2022/09/01 11:24:40;;;;;;;1.65;0.17;;;;;;;35.59;16.03;101576.34;4896781;29;20066;-88
2022/09/01 11:27:13;;;;;;;3.25;0.25;;;;;;;35.11;17.13;101581.09;4914614;29;20044;-87
2022/09/01 11:30:01;;;;;;;2.10;0.43;;;;;;;34.39;17.05;101566.38;4922327;29;20428;-87
2022/09/01 11:32:35;;;;;;;2.08;0.20;;;;;;;32.68;18.16;101563.94;4939710;29;20318;-88
2022/09/01 11:35:10;;;;;;;2.03;0.30;;;;;;;32.47;19.18;101567.53;4931599;28;20163;-88
2022/09/01 11:37:40;;;;;;;0.28;0.28;;;;;;;33.39;17.88;101568.44;4948466;28;20074;-87
2022/09/01 11:40:09;;;;;;;0.60;0.20;;;;;;;34.76;16.90;101558.22;4939718;28;20054;-88
2022/09/01 11:42:44;;;;;;;1.10;0.30;;;;;;;35.32;16.59;101558.19;4907590;28;20043;-89
2022/09/01 11:45:27;;;;;;;1.35;0.28;;;;;;;35.87;15.94;101561.78;4920307;29;20039;-88
2022/09/01 11:48:15;;;;;;;1.58;0.20;;;;;;;34.89;16.61;101562.47;4922251;28;20035;-88
2022/09/01 11:50:43;;;;;;;2.88;0.32;;;;;;;35.95;16.39;101553.66;4930773;23;20052;-86
2022/09/01 11:53:27;;;;;;;0.28;0.20;;;;;;;36.54;15.21;101556.59;4953986;28;20034;-85
2022/09/01 11:55:56;;;;;;;3.05;0.75;;;;;;;33.85;17.79;101561.47;4954198;28;20035;-85
2022/09/01 11:58:26;;;;;;;2.10;0.32;;;;;;;34.05;17.65;101553.28;4941205;29;20061;-85
2022/09/01 12:00:54;;;;;;;0.57;0.30;;;;;;;35.21;16.82;101550.22;4962279;28;20082;-85
2022/09/01 12:03:29;;;;;;;2.80;0.50;;;;;;;35.69;16.52;101553.59;4945326;28;20070;-86
2022/09/01 12:06:00;;;;;;;0.75;0.30;;;;;;;33.95;18.30;101548.72;4955212;28;20050;-85
2022/09/01 12:08:36;;;;;;;1.92;0.40;;;;;;;30.55;21.12;101550.09;4953902;28;20036;-86
2022/09/01 12:11:05;;;;;;;1.45;0.40;;;;;;;29.91;22.27;101554.13;4938645;28;20043;-86
2022/09/01 12:13:32;;;;;;;3.33;0.40;;;;;;;31.07;21.17;101545.91;4941549;28;20091;-87